Time;durP1;ratioP1;P1;durP2;ratioP2;P2;SDS_P1;SDS_P2;PMS_P1;PMS_P2;Temp;Humidity;BMP_temperature;BMP_pressure;BME280_temperature;BME280_humidity;BME280_pressure;Samples;Min_cycle;Max_cycle;Signal;HPM_P1;HPM_P2
2022/12/03 00:00:08;;;;;;;29.52;16.33;;;;;;;2.91;76.61;102396.91;5069662;28;20024;-46
2022/12/03 00:02:34;;;;;;;27.77;15.57;;;;;;;2.90;76.70;102396.03;5066939;28;20060;-46
2022/12/03 00:04:59;;;;;;;29.50;15.63;;;;;;;2.95;76.67;102391.34;5069515;28;20051;-48
2022/12/03 00:07:25;;;;;;;27.63;16.33;;;;;;;3.00;76.53;102400.22;5068715;28;20485;-49
2022/12/03 00:09:50;;;;;;;27.60;16.42;;;;;;;2.95;76.36;102402.38;5069591;28;20044;-47
2022/12/03 00:12:15;;;;;;;28.90;15.77;;;;;;;2.92;76.25;102396.19;5068251;28;20028;-48
2022/12/03 00:14:41;;;;;;;30.05;16.45;;;;;;;2.92;76.63;102393.63;5068767;28;20109;-48
2022/12/03 00:17:06;;;;;;;30.90;16.13;;;;;;;2.99;76.18;102388.28;5067965;28;20064;-47
2022/12/03 00:19:31;;;;;;;29.45;16.85;;;;;;;3.02;76.37;102391.06;5068201;28;20056;-45
2022/12/03 00:21:57;;;;;;;29.48;16.40;;;;;;;3.02;76.17;102391.06;5065804;28;20032;-47
2022/12/03 00:24:22;;;;;;;28.73;16.60;;;;;;;3.02;76.42;102380.91;5066489;28;20028;-48
2022/12/03 00:26:47;;;;;;;29.58;16.50;;;;;;;3.03;76.49;102381.78;5066012;28;20053;-48
2022/12/03 00:29:13;;;;;;;29.00;16.65;;;;;;;3.00;76.35;102382.44;5067072;28;20028;-47
2022/12/03 00:31:38;;;;;;;28.42;15.98;;;;;;;3.04;76.53;102383.59;5063243;28;20052;-47
2022/12/03 00:34:03;;;;;;;30.88;16.33;;;;;;;3.07;76.35;102378.75;5069307;28;20028;-46
2022/12/03 00:36:29;;;;;;;30.70;16.67;;;;;;;3.11;75.92;102375.72;5067677;28;20111;-47
2022/12/03 00:38:54;;;;;;;30.52;16.75;;;;;;;3.13;76.26;102377.59;5068729;28;20059;-48
2022/12/03 00:41:19;;;;;;;27.88;16.50;;;;;;;3.13;75.97;102371.63;5067524;28;20029;-45
2022/12/03 00:43:45;;;;;;;29.23;16.30;;;;;;;3.14;76.13;102379.38;5067604;28;20478;-45
2022/12/03 00:46:10;;;;;;;31.73;17.30;;;;;;;3.09;76.19;102370.47;5067117;28;20033;-48
2022/12/03 00:48:35;;;;;;;31.90;16.77;;;;;;;3.13;76.26;102369.97;5066288;28;20107;-44
2022/12/03 00:51:01;;;;;;;30.95;16.27;;;;;;;3.16;76.30;102377.88;5068374;28;20052;-48
2022/12/03 00:53:26;;;;;;;30.20;16.50;;;;;;;3.18;75.97;102370.38;5068632;28;20427;-47
2022/12/03 00:55:52;;;;;;;32.03;16.73;;;;;;;3.19;76.44;102367.06;5070050;28;20481;-47
2022/12/03 00:58:17;;;;;;;28.75;16.55;;;;;;;3.21;76.27;102371.47;5068606;28;20029;-48
2022/12/03 01:00:43;;;;;;;29.83;17.10;;;;;;;3.21;76.07;102371.47;5067421;28;20082;-49
2022/12/03 01:03:08;;;;;;;30.55;17.20;;;;;;;3.20;76.05;102369.72;5066929;28;20079;-47
2022/12/03 01:05:34;;;;;;;27.48;16.13;;;;;;;3.19;75.87;102375.56;5065842;28;20546;-47
2022/12/03 01:07:59;;;;;;;31.77;17.40;;;;;;;3.23;76.33;102372.53;5073108;28;20066;-48
2022/12/03 01:10:24;;;;;;;28.88;16.50;;;;;;;3.22;76.28;102368.19;5072769;28;20358;-44
2022/12/03 01:12:50;;;;;;;30.90;16.88;;;;;;;3.17;75.97;102366.06;5070288;28;20461;-47
2022/12/03 01:15:15;;;;;;;30.98;17.55;;;;;;;3.20;76.37;102372.25;5072664;28;20033;-47
2022/12/03 01:17:41;;;;;;;32.47;18.38;;;;;;;3.11;76.07;102368.97;5070749;28;20031;-46
2022/12/03 01:20:08;;;;;;;31.75;17.30;;;;;;;3.14;76.26;102368.31;5069762;28;20542;-48
2022/12/03 01:22:34;;;;;;;32.70;17.65;;;;;;;3.12;76.78;102368.22;5068268;28;20024;-48
2022/12/03 01:24:59;;;;;;;29.98;17.30;;;;;;;3.13;76.53;102364.00;5071141;28;20111;-46
2022/12/03 01:27:24;;;;;;;31.85;17.55;;;;;;;3.15;76.30;102363.34;5065590;28;20045;-47
2022/12/03 01:29:50;;;;;;;31.65;18.52;;;;;;;3.11;76.18;102365.53;5070129;28;20024;-49
2022/12/03 01:32:15;;;;;;;30.60;17.63;;;;;;;3.17;76.52;102358.44;5069520;28;20052;-47
2022/12/03 01:34:41;;;;;;;29.08;17.05;;;;;;;3.18;76.26;102362.75;5072404;28;20115;-47
2022/12/03 01:37:06;;;;;;;29.33;17.10;;;;;;;3.17;76.52;102361.84;5072224;28;20025;-47
2022/12/03 01:39:32;;;;;;;30.67;17.08;;;;;;;3.16;76.34;102360.09;5072713;28;20053;-45
2022/12/03 01:41:57;;;;;;;29.90;16.75;;;;;;;3.15;76.22;102363.34;5071357;28;20074;-47
2022/12/03 01:44:26;;;;;;;32.22;17.83;;;;;;;3.13;76.28;102357.28;5072377;28;20037;-45
2022/12/03 01:46:54;;;;;;;31.53;17.33;;;;;;;3.18;76.35;102365.28;5071274;28;20077;-47
2022/12/03 01:49:38;;;;;;;31.67;17.83;;;;;;;3.20;76.65;102357.00;5065060;28;20092;-47
2022/12/03 01:52:03;;;;;;;32.00;17.50;;;;;;;3.12;76.25;102358.03;5068748;28;20032;-47
2022/12/03 01:54:38;;;;;;;32.72;17.75;;;;;;;3.10;76.63;102354.50;5063938;28;20082;-43
2022/12/03 01:57:13;;;;;;;31.08;17.23;;;;;;;3.07;76.91;102360.97;5072462;28;20099;-52
2022/12/03 01:59:38;;;;;;;30.98;17.67;;;;;;;3.10;76.95;102353.59;5070056;28;20477;-46
2022/12/03 02:02:11;;;;;;;34.03;18.60;;;;;;;3.10;76.76;102354.50;5072871;28;20024;-48
2022/12/03 02:04:37;;;;;;;32.38;18.00;;;;;;;3.11;76.83;102350.31;5071527;28;20475;-48
2022/12/03 02:07:34;;;;;;;32.95;17.95;;;;;;;3.14;76.82;102353.97;5071293;28;20036;-48
2022/12/03 02:10:01;;;;;;;30.13;17.23;;;;;;;3.12;76.92;102352.97;5051073;28;20032;-48
2022/12/03 02:12:58;;;;;;;32.75;17.98;;;;;;;3.19;76.85;102354.34;5066267;28;20354;-47
2022/12/03 02:15:23;;;;;;;34.35;18.30;;;;;;;3.16;76.67;102355.00;5069717;28;20036;-43
2022/12/03 02:17:49;;;;;;;31.90;18.55;;;;;;;3.14;76.52;102351.41;5069122;28;20078;-47
2022/12/03 02:20:15;;;;;;;33.78;18.42;;;;;;;3.05;76.66;102359.97;5069878;28;20487;-46
2022/12/03 02:23:06;;;;;;;34.78;18.42;;;;;;;3.07;77.25;102354.22;5070181;28;20036;-47
2022/12/03 02:25:46;;;;;;;34.58;18.98;;;;;;;3.10;77.05;102351.06;5068297;28;20109;-44
2022/12/03 02:28:12;;;;;;;33.92;19.10;;;;;;;3.05;77.10;102342.16;5067479;28;20103;-48
2022/12/03 02:30:38;;;;;;;33.67;18.42;;;;;;;3.05;77.08;102347.25;5066209;28;20032;-50
2022/12/03 02:33:03;;;;;;;35.35;18.48;;;;;;;3.06;77.00;102343.94;5067590;28;20041;-49
2022/12/03 02:35:32;;;;;;;36.03;19.73;;;;;;;3.08;77.23;102343.28;5069079;28;20036;-46
2022/12/03 02:38:10;;;;;;;34.55;19.00;;;;;;;3.10;77.18;102339.25;5064965;28;20028;-49
2022/12/03 02:40:37;;;;;;;32.03;18.45;;;;;;;3.08;77.29;102342.41;5070475;28;20066;-46
2022/12/03 02:43:03;;;;;;;34.67;19.23;;;;;;;3.07;77.37;102333.91;5071630;28;20032;-47
2022/12/03 02:45:38;;;;;;;34.92;19.08;;;;;;;3.06;77.15;102333.78;5069002;28;20017;-47
2022/12/03 02:48:17;;;;;;;32.80;19.10;;;;;;;3.06;77.45;102333.78;5067375;28;20028;-48
2022/12/03 02:50:46;;;;;;;;;;;;;;;3.11;77.10;102341.03;5066060;28;20017;-46
2022/12/03 02:53:16;;;;;;;33.33;18.25;;;;;;;3.00;77.35;102336.72;5067105;28;19915;-49
2022/12/03 02:55:41;;;;;;;35.92;20.08;;;;;;;2.91;77.49;102341.94;5066299;28;20082;-48
2022/12/03 02:58:09;;;;;;;34.78;18.88;;;;;;;2.91;77.80;102330.84;5068981;28;20056;-49
2022/12/03 03:00:36;;;;;;;35.80;19.83;;;;;;;2.95;77.72;102332.91;5070778;28;20032;-47
2022/12/03 03:03:03;;;;;;;35.20;19.73;;;;;;;2.99;77.44;102332.41;5071565;28;20473;-45
2022/12/03 03:05:29;;;;;;;36.50;19.23;;;;;;;3.01;77.65;102335.06;5068161;28;20198;-47
2022/12/03 03:07:57;;;;;;;36.90;19.73;;;;;;;3.08;77.67;102339.88;5070604;28;20028;-49
2022/12/03 03:10:23;;;;;;;36.05;19.17;;;;;;;3.11;77.63;102333.41;5069211;28;20441;-47
2022/12/03 03:12:51;;;;;;;35.50;19.77;;;;;;;3.12;77.33;102330.09;5068204;28;20162;-44
2022/12/03 03:15:16;;;;;;;34.35;19.52;;;;;;;3.10;77.15;102329.09;5068339;28;20103;-47
2022/12/03 03:17:42;;;;;;;37.80;20.38;;;;;;;3.11;77.48;102328.31;5065892;28;20158;-48
2022/12/03 03:20:09;;;;;;;35.90;20.48;;;;;;;3.12;77.39;102324.13;5069495;28;20040;-49
2022/12/03 03:22:39;;;;;;;35.83;20.10;;;;;;;3.09;77.30;102321.31;5064956;28;20024;-47
2022/12/03 03:25:09;;;;;;;37.85;21.13;;;;;;;3.08;77.00;102317.88;5065994;28;20051;-46
2022/12/03 03:27:35;;;;;;;39.60;20.38;;;;;;;3.05;77.11;102322.72;5066727;28;20025;-45
2022/12/03 03:30:01;;;;;;;36.20;20.48;;;;;;;3.01;77.33;102323.22;5064490;28;20035;-48
2022/12/03 03:32:27;;;;;;;38.70;21.02;;;;;;;2.96;77.60;102314.34;5067180;28;20047;-47
2022/12/03 03:34:54;;;;;;;36.00;20.25;;;;;;;2.96;77.71;102317.75;5067455;28;20025;-47
2022/12/03 03:37:19;;;;;;;36.45;20.60;;;;;;;2.96;78.23;102315.22;5069019;28;20036;-47
2022/12/03 03:39:45;;;;;;;39.38;20.77;;;;;;;3.00;78.02;102318.03;5065425;28;20036;-46
2022/12/03 03:42:10;;;;;;;37.28;20.70;;;;;;;3.00;77.78;102313.84;5068007;28;20115;-48
2022/12/03 03:44:36;;;;;;;36.35;20.58;;;;;;;2.97;77.77;102303.41;5068257;28;20135;-47
2022/12/03 03:47:02;;;;;;;36.28;20.23;;;;;;;2.96;77.72;102307.59;5067909;28;20024;-47
2022/12/03 03:49:27;;;;;;;34.75;20.20;;;;;;;3.00;77.93;102298.59;5062129;28;20528;-46
2022/12/03 03:51:54;;;;;;;38.63;19.98;;;;;;;2.97;77.86;102298.31;5066702;28;20500;-47
2022/12/03 03:54:19;;;;;;;34.08;19.50;;;;;;;3.02;77.63;102307.22;5064378;28;20043;-49
2022/12/03 03:56:45;;;;;;;38.50;20.85;;;;;;;3.02;77.48;102304.69;5065696;28;20036;-47
2022/12/03 03:59:12;;;;;;;38.33;20.95;;;;;;;3.04;77.65;102304.81;5068072;28;20036;-49
2022/12/03 04:01:38;;;;;;;37.10;20.58;;;;;;;3.06;77.65;102310.91;5069775;28;20457;-46
2022/12/03 04:04:06;;;;;;;34.75;19.52;;;;;;;3.07;77.49;102305.94;5068551;28;20090;-48
2022/12/03 04:06:32;;;;;;;36.30;21.33;;;;;;;3.05;77.40;102301.50;5069517;28;20450;-46
2022/12/03 04:08:57;;;;;;;37.17;21.13;;;;;;;3.04;77.48;102300.63;5068384;28;20283;-47
2022/12/03 04:14:06;;;;;;;34.83;20.23;;;;;;;3.09;77.60;102304.41;5067996;28;20144;-48
2022/12/03 04:16:31;;;;;;;35.67;19.63;;;;;;;3.02;77.80;102298.72;5069693;28;20107;-48
2022/12/03 04:18:56;;;;;;;36.58;20.23;;;;;;;2.96;77.67;102294.91;5068565;28;20029;-49
2022/12/03 04:24:09;;;;;;;36.75;20.25;;;;;;;2.91;77.74;102292.75;5067614;28;20039;-47
2022/12/03 04:29:19;;;;;;;34.17;19.88;;;;;;;2.85;78.26;102294.78;5064009;28;20047;-47
2022/12/03 04:37:13;;;;;;;36.08;20.30;;;;;;;2.94;78.37;102298.09;5067879;28;20039;-47
2022/12/03 04:39:39;;;;;;;39.90;20.65;;;;;;;2.96;78.09;102294.00;5068457;28;20040;-49
2022/12/03 04:42:05;;;;;;;40.58;23.58;;;;;;;2.95;77.98;102298.22;5068703;28;20416;-48
2022/12/03 04:44:37;;;;;;;42.42;21.58;;;;;;;2.91;78.25;102287.66;5068700;28;20028;-50
2022/12/03 04:47:17;;;;;;;36.70;21.23;;;;;;;2.96;78.40;102287.28;5068716;28;20028;-48
2022/12/03 04:49:45;;;;;;;36.17;20.40;;;;;;;2.90;78.07;102290.97;5065261;28;20440;-47
2022/12/03 04:52:12;;;;;;;36.67;20.85;;;;;;;2.88;78.38;102287.44;5067321;28;20032;-45
2022/12/03 04:54:38;;;;;;;40.33;21.88;;;;;;;2.86;78.55;102284.78;5064976;28;20021;-44
2022/12/03 04:57:04;;;;;;;40.00;22.10;;;;;;;2.91;78.58;102287.66;5068835;28;20028;-47
2022/12/03 04:59:30;;;;;;;35.45;20.48;;;;;;;2.89;78.53;102279.03;5068494;28;20021;-47
2022/12/03 05:01:56;;;;;;;36.78;21.60;;;;;;;2.96;78.81;102278.75;5068741;28;20504;-48
2022/12/03 05:04:21;;;;;;;38.03;21.58;;;;;;;2.96;78.34;102284.75;5065611;28;20107;-47
2022/12/03 05:06:47;;;;;;;41.17;21.77;;;;;;;2.95;78.63;102279.53;5068272;28;20017;-45
2022/12/03 05:09:12;;;;;;;38.53;21.65;;;;;;;2.87;78.74;102289.09;5064008;28;20466;-46
2022/12/03 05:11:38;;;;;;;40.85;21.70;;;;;;;2.79;79.21;102274.88;5067058;28;20033;-50
2022/12/03 05:14:04;;;;;;;38.67;21.65;;;;;;;2.86;79.12;102284.78;5064095;28;20025;-47
2022/12/03 05:16:29;;;;;;;39.30;22.85;;;;;;;2.87;79.10;102280.56;5066237;28;20070;-48
2022/12/03 05:18:55;;;;;;;39.65;23.08;;;;;;;2.83;78.99;102278.53;5062992;28;20029;-47
2022/12/03 05:21:20;;;;;;;38.25;20.88;;;;;;;2.82;79.18;102276.78;5064209;28;20040;-48
2022/12/03 05:23:45;;;;;;;38.10;21.73;;;;;;;2.85;79.26;102277.00;5063620;28;20040;-46
2022/12/03 05:26:11;;;;;;;37.85;21.35;;;;;;;2.82;79.22;102276.78;5065809;28;20028;-46
2022/12/03 05:28:36;;;;;;;38.67;21.58;;;;;;;2.83;79.61;102276.00;5069581;28;20492;-48
2022/12/03 05:31:01;;;;;;;40.35;21.58;;;;;;;2.83;79.41;102269.25;5068809;28;20045;-46
2022/12/03 05:33:27;;;;;;;38.45;21.17;;;;;;;2.82;79.69;102274.22;5066943;28;20025;-47
2022/12/03 05:35:52;;;;;;;39.80;21.02;;;;;;;2.86;79.81;102269.53;5068872;28;20029;-48
2022/12/03 05:38:18;;;;;;;39.88;22.45;;;;;;;2.92;79.43;102271.69;5069036;28;20373;-46
2022/12/03 05:40:43;;;;;;;40.13;22.75;;;;;;;2.90;79.32;102265.56;5070545;28;20162;-46
2022/12/03 05:43:09;;;;;;;39.17;21.83;;;;;;;2.89;79.42;102269.75;5068476;28;20482;-48
2022/12/03 05:45:36;;;;;;;40.00;21.90;;;;;;;2.69;79.65;102262.19;5068778;28;20036;-48
2022/12/03 05:48:04;;;;;;;39.20;22.23;;;;;;;2.72;80.14;102264.97;5068069;28;20024;-47
2022/12/03 05:50:32;;;;;;;40.33;21.90;;;;;;;2.74;80.37;102255.84;5066511;28;20024;-48
2022/12/03 05:52:58;;;;;;;39.28;21.25;;;;;;;2.77;80.13;102258.59;5065367;28;20032;-48
2022/12/03 05:55:24;;;;;;;41.15;21.13;;;;;;;2.77;80.00;102253.53;5063417;28;20020;-48
2022/12/03 05:57:50;;;;;;;40.20;21.05;;;;;;;2.80;80.01;102260.53;5071844;28;20556;-45
2022/12/03 06:00:19;;;;;;;40.58;21.95;;;;;;;2.79;80.09;102257.09;5070141;28;20032;-46
2022/12/03 06:02:45;;;;;;;40.22;22.25;;;;;;;2.76;80.08;102258.50;5068338;28;20457;-46
2022/12/03 06:05:11;;;;;;;38.60;21.83;;;;;;;2.79;79.66;102253.63;5070487;28;20115;-48
2022/12/03 06:07:37;;;;;;;42.92;21.52;;;;;;;2.84;80.12;102265.94;5066304;28;20381;-47
2022/12/03 06:10:04;;;;;;;40.63;22.02;;;;;;;2.86;80.19;102264.44;5068253;28;20028;-49
2022/12/03 06:12:30;;;;;;;39.30;21.77;;;;;;;2.90;79.96;102263.03;5063973;28;20560;-47
2022/12/03 06:14:55;;;;;;;37.95;21.83;;;;;;;2.93;79.93;102263.28;5068985;28;20044;-43
2022/12/03 06:17:21;;;;;;;40.28;21.70;;;;;;;2.95;79.77;102266.84;5067697;28;21247;-47
2022/12/03 06:19:46;;;;;;;38.13;21.15;;;;;;;2.97;79.99;102265.28;5068501;28;20070;-47
2022/12/03 06:22:12;;;;;;;43.95;22.85;;;;;;;2.91;80.00;102263.19;5064552;28;20496;-48
2022/12/03 06:24:37;;;;;;;40.33;20.60;;;;;;;2.90;79.80;102258.84;5068260;28;20035;-47
2022/12/03 06:27:02;;;;;;;41.40;21.85;;;;;;;2.92;79.87;102259.88;5068406;28;20127;-50
2022/12/03 06:29:28;;;;;;;40.50;21.75;;;;;;;2.94;79.98;102267.59;5067081;28;20016;-48
2022/12/03 06:31:53;;;;;;;41.88;22.13;;;;;;;2.91;79.98;102262.25;5064393;28;20646;-48
2022/12/03 06:34:18;;;;;;;42.28;22.10;;;;;;;2.94;80.00;102265.06;5068403;28;20107;-46
2022/12/03 06:36:45;;;;;;;39.97;21.40;;;;;;;2.90;79.73;102256.28;5065235;28;20060;-48
2022/12/03 06:39:11;;;;;;;41.97;20.70;;;;;;;2.96;79.83;102266.94;5065962;28;20040;-47
2022/12/03 06:41:36;;;;;;;42.13;20.85;;;;;;;2.98;79.60;102254.38;5064424;28;20028;-46
2022/12/03 06:44:02;;;;;;;43.60;22.30;;;;;;;2.88;79.67;102260.38;5069529;28;20060;-48
2022/12/03 06:46:27;;;;;;;39.63;21.17;;;;;;;2.84;79.97;102260.88;5067167;28;20035;-46
2022/12/03 06:48:52;;;;;;;39.83;20.45;;;;;;;2.87;80.05;102252.63;5063940;28;20382;-46
2022/12/03 06:51:18;;;;;;;39.42;20.63;;;;;;;2.85;79.66;102256.69;5061809;28;20385;-46
2022/12/03 06:53:43;;;;;;;39.13;20.35;;;;;;;2.82;79.79;102246.28;5061075;28;20372;-48
2022/12/03 06:56:08;;;;;;;40.35;21.55;;;;;;;2.86;79.91;102250.88;5065508;28;20028;-45
2022/12/03 06:58:34;;;;;;;40.08;21.05;;;;;;;2.86;79.91;102249.22;5066052;28;20028;-48
2022/12/03 07:00:59;;;;;;;39.80;21.63;;;;;;;2.83;79.72;102248.94;5060686;28;20032;-48
2022/12/03 07:03:24;;;;;;;37.67;19.98;;;;;;;2.86;80.13;102248.31;5062856;28;20033;-45
2022/12/03 07:05:50;;;;;;;38.05;20.00;;;;;;;2.92;79.77;102243.75;5067427;28;20032;-44
2022/12/03 07:08:15;;;;;;;39.65;20.50;;;;;;;2.90;79.44;102245.25;5068609;28;20028;-44
2022/12/03 07:10:41;;;;;;;41.92;20.85;;;;;;;2.90;79.40;102245.25;5066560;28;20474;-45
2022/12/03 07:13:06;;;;;;;39.00;20.70;;;;;;;2.91;79.79;102249.56;5066912;28;20525;-48
2022/12/03 07:15:31;;;;;;;36.97;19.92;;;;;;;2.88;79.80;102250.22;5063728;28;20112;-51
2022/12/03 07:17:57;;;;;;;40.03;20.50;;;;;;;2.93;79.58;102250.59;5067868;28;20029;-49
2022/12/03 07:20:22;;;;;;;36.67;20.30;;;;;;;2.83;79.29;102248.94;5063490;28;20029;-48
2022/12/03 07:22:47;;;;;;;39.60;21.35;;;;;;;2.80;79.50;102252.91;5067588;28;20119;-47
2022/12/03 07:25:13;;;;;;;38.78;20.48;;;;;;;2.72;79.77;102248.84;5065141;28;20041;-48
2022/12/03 07:27:39;;;;;;;40.03;19.92;;;;;;;2.77;79.93;102250.97;5067241;28;20028;-49
2022/12/03 07:30:06;;;;;;;36.65;19.88;;;;;;;2.76;79.87;102241.59;5067642;28;20028;-47
2022/12/03 07:32:31;;;;;;;40.58;20.10;;;;;;;2.81;79.70;102247.06;5065941;28;20059;-46
2022/12/03 07:34:57;;;;;;;37.65;19.65;;;;;;;2.82;79.45;102248.81;5067847;28;20373;-47
2022/12/03 07:37:22;;;;;;;38.42;19.23;;;;;;;2.87;79.58;102255.16;5065748;28;20429;-50
2022/12/03 07:39:47;;;;;;;35.17;19.40;;;;;;;2.87;79.13;102255.16;5065202;28;20036;-48
2022/12/03 07:42:13;;;;;;;37.80;19.00;;;;;;;2.90;78.91;102257.94;5065584;28;20463;-45
2022/12/03 07:44:38;;;;;;;36.97;18.92;;;;;;;2.89;78.75;102256.16;5067829;28;20075;-48
2022/12/03 07:47:03;;;;;;;35.70;19.20;;;;;;;2.85;78.49;102246.53;5065988;28;20025;-47
2022/12/03 07:49:29;;;;;;;34.95;18.17;;;;;;;2.84;78.64;102248.16;5060112;28;20392;-46
2022/12/03 07:51:55;;;;;;;35.63;19.95;;;;;;;2.76;78.12;102258.50;5065363;28;20028;-46
2022/12/03 07:54:24;;;;;;;36.42;18.52;;;;;;;2.69;78.71;102252.03;5063182;28;20040;-47
2022/12/03 07:56:51;;;;;;;34.00;18.20;;;;;;;2.74;78.58;102254.94;5066318;28;20028;-46
2022/12/03 07:59:17;;;;;;;35.40;18.42;;;;;;;2.74;78.77;102253.28;5063070;28;20040;-47
2022/12/03 08:01:42;;;;;;;35.97;18.35;;;;;;;2.73;79.10;102246.44;5069949;28;20035;-46
2022/12/03 08:04:08;;;;;;;38.47;19.27;;;;;;;2.79;78.91;102256.19;5067240;28;20032;-46
2022/12/03 08:06:33;;;;;;;36.28;18.63;;;;;;;2.73;79.00;102256.59;5069589;28;20036;-47
2022/12/03 08:08:59;;;;;;;35.83;18.40;;;;;;;2.77;79.35;102257.72;5061295;28;20020;-48
2022/12/03 08:11:27;;;;;;;39.70;19.10;;;;;;;2.80;79.42;102252.91;5068595;28;20115;-44
2022/12/03 08:13:53;;;;;;;38.70;19.67;;;;;;;2.83;79.32;102263.28;5060785;28;20060;-46
2022/12/03 08:16:20;;;;;;;33.20;18.35;;;;;;;2.82;79.25;102267.50;5066667;28;20501;-46
2022/12/03 08:18:47;;;;;;;37.80;18.70;;;;;;;2.82;79.27;102254.78;5066925;28;20029;-46
2022/12/03 08:21:15;;;;;;;36.35;19.20;;;;;;;2.84;78.98;102258.34;5066812;28;20449;-45
2022/12/03 08:23:40;;;;;;;36.28;18.83;;;;;;;2.80;78.78;102261.41;5067436;28;20020;-47
2022/12/03 08:26:27;;;;;;;38.10;19.13;;;;;;;2.88;79.28;102262.91;5069059;28;20086;-46
2022/12/03 08:28:52;;;;;;;35.45;18.40;;;;;;;2.85;78.78;102257.59;5060563;28;20021;-47
2022/12/03 08:31:24;;;;;;;35.95;18.95;;;;;;;2.83;79.07;102270.91;5063176;28;20056;-48
2022/12/03 08:33:52;;;;;;;36.58;18.58;;;;;;;2.83;79.04;102266.72;5060624;28;20031;-48
2022/12/03 08:36:18;;;;;;;37.67;18.80;;;;;;;2.82;79.21;102262.41;5061452;28;20074;-46
2022/12/03 08:38:51;;;;;;;39.50;18.23;;;;;;;2.82;79.75;102264.94;5065474;28;20036;-46
2022/12/03 08:44:25;;;;;;;40.55;19.42;;;;;;;2.80;79.83;102258.00;5060976;28;20043;-46
2022/12/03 08:47:23;;;;;;;41.92;19.33;;;;;;;2.86;80.10;102263.56;5063913;28;20365;-47
2022/12/03 08:50:12;;;;;;;40.72;20.00;;;;;;;2.91;79.67;102258.09;5061410;28;20382;-45
2022/12/03 08:52:38;;;;;;;44.05;20.33;;;;;;;2.85;79.31;102257.59;5062055;28;20027;-47
2022/12/03 08:55:36;;;;;;;42.97;19.95;;;;;;;2.89;79.46;102254.53;5068509;28;20021;-45
2022/12/03 08:58:30;;;;;;;46.13;20.93;;;;;;;2.93;79.50;102255.66;5068359;28;20033;-46
2022/12/03 09:01:04;;;;;;;44.17;20.83;;;;;;;2.88;79.71;102256.94;5066333;28;20082;-49
2022/12/03 09:03:30;;;;;;;44.60;20.20;;;;;;;2.83;79.96;102253.13;5064480;28;20024;-45
2022/12/03 09:05:56;;;;;;;41.55;20.45;;;;;;;2.86;80.07;102250.88;5069585;28;20499;-48
2022/12/03 09:08:21;;;;;;;42.40;19.70;;;;;;;2.91;79.73;102254.63;5069328;28;20024;-46
2022/12/03 09:10:46;;;;;;;40.88;19.95;;;;;;;3.00;80.02;102257.94;5071032;28;20063;-46
2022/12/03 09:13:12;;;;;;;42.05;19.27;;;;;;;3.01;79.05;102252.09;5066451;28;20095;-49
2022/12/03 09:15:37;;;;;;;43.60;20.20;;;;;;;2.99;78.69;102247.66;5071969;28;20056;-44
2022/12/03 09:18:03;;;;;;;43.65;19.38;;;;;;;3.04;77.74;102252.34;5072288;28;20369;-46
2022/12/03 09:20:28;;;;;;;42.08;20.55;;;;;;;3.06;77.74;102260.97;5064469;28;20028;-48
2022/12/03 09:22:54;;;;;;;44.58;20.30;;;;;;;3.10;77.28;102263.00;5071047;28;20358;-49
2022/12/03 09:25:19;;;;;;;39.95;19.02;;;;;;;3.12;77.02;102258.91;5068146;28;20046;-46
2022/12/03 09:27:44;;;;;;;42.08;20.23;;;;;;;3.18;77.08;102253.44;5069909;28;20028;-48
2022/12/03 09:30:10;;;;;;;40.10;18.95;;;;;;;3.20;77.06;102247.69;5071504;28;20028;-48
2022/12/03 09:32:36;;;;;;;42.83;21.00;;;;;;;3.25;77.06;102260.78;5070839;28;20055;-48
2022/12/03 09:35:01;;;;;;;43.33;20.45;;;;;;;3.27;76.71;102264.31;5068826;28;20028;-48
2022/12/03 09:37:26;;;;;;;42.20;20.58;;;;;;;3.29;76.64;102257.72;5069133;28;20103;-45
2022/12/03 09:39:52;;;;;;;39.30;19.50;;;;;;;3.32;76.33;102257.97;5064603;28;20032;-47
2022/12/03 09:42:17;;;;;;;45.35;21.20;;;;;;;3.27;76.38;102256.69;5068379;28;20453;-47
2022/12/03 09:44:43;;;;;;;44.28;20.92;;;;;;;3.22;76.49;102251.28;5068374;28;20047;-48
2022/12/03 09:47:08;;;;;;;47.33;21.75;;;;;;;3.16;76.27;102253.31;5068832;28;20074;-46
2022/12/03 09:49:35;;;;;;;47.03;21.73;;;;;;;3.17;76.71;102251.66;5061733;28;20107;-46
2022/12/03 09:52:03;;;;;;;46.92;21.33;;;;;;;3.16;76.40;102250.78;5061383;28;20473;-48
2022/12/03 09:54:29;;;;;;;44.60;21.02;;;;;;;3.18;76.25;102246.69;5070659;28;20045;-46
2022/12/03 09:56:58;;;;;;;45.83;21.73;;;;;;;3.15;76.47;102245.56;5072461;28;20067;-48
2022/12/03 09:59:26;;;;;;;42.65;21.55;;;;;;;3.20;76.67;102240.06;5063026;28;20021;-46
2022/12/03 10:01:53;;;;;;;45.53;23.00;;;;;;;3.15;76.46;102236.28;5071899;28;20461;-47
2022/12/03 10:04:18;;;;;;;47.35;21.40;;;;;;;3.08;76.67;102236.56;5070826;28;20032;-47
2022/12/03 10:06:44;;;;;;;47.20;22.38;;;;;;;3.00;76.68;102236.72;5070947;28;20090;-47
2022/12/03 10:09:13;;;;;;;48.15;22.88;;;;;;;2.90;76.52;102233.44;5070021;28;20035;-47
2022/12/03 10:11:38;;;;;;;48.38;21.77;;;;;;;2.94;76.82;102232.03;5070514;28;20099;-45
2022/12/03 10:14:04;;;;;;;46.10;21.70;;;;;;;2.98;76.98;102223.91;5069297;28;20466;-47
2022/12/03 10:16:29;;;;;;;45.90;21.08;;;;;;;3.10;77.12;102226.53;5070856;28;20036;-48
2022/12/03 10:18:58;;;;;;;47.35;22.30;;;;;;;3.10;76.71;102224.88;5070490;28;20462;-45
2022/12/03 10:21:37;;;;;;;47.60;21.92;;;;;;;3.17;76.81;102216.97;5070017;28;20017;-47
2022/12/03 10:24:21;;;;;;;49.45;22.35;;;;;;;3.11;76.68;102216.47;5070761;28;20529;-47
2022/12/03 10:26:50;;;;;;;46.20;20.90;;;;;;;3.04;76.88;102215.88;5068393;28;20067;-47
2022/12/03 10:29:35;;;;;;;46.75;21.58;;;;;;;3.07;76.84;102213.56;5070612;28;20020;-48
2022/12/03 10:32:08;;;;;;;50.95;22.77;;;;;;;3.02;76.98;102208.09;5070283;28;20122;-48
2022/12/03 10:34:40;;;;;;;46.83;21.27;;;;;;;3.04;77.34;102206.59;5070324;28;20028;-49
2022/12/03 10:37:16;;;;;;;46.00;21.73;;;;;;;2.94;76.89;102204.97;5073655;28;20040;-48
2022/12/03 10:40:09;;;;;;;44.75;21.45;;;;;;;2.92;77.05;102203.97;5070620;28;20461;-48
2022/12/03 10:42:37;;;;;;;47.03;21.45;;;;;;;2.87;77.52;102199.28;5071654;28;20028;-47
2022/12/03 10:45:14;;;;;;;46.05;21.98;;;;;;;2.90;77.79;102194.44;5066045;28;20366;-48
2022/12/03 10:47:40;;;;;;;50.88;22.77;;;;;;;2.77;77.89;102186.59;5068793;28;20508;-47
2022/12/03 10:50:17;;;;;;;44.72;21.15;;;;;;;2.76;77.67;102185.72;5068108;28;20055;-49
2022/12/03 10:52:44;;;;;;;43.90;20.70;;;;;;;2.72;77.44;102192.97;5067773;28;20070;-47
2022/12/03 10:55:13;;;;;;;39.25;19.40;;;;;;;2.76;77.44;102189.91;5069493;28;20063;-46
2022/12/03 10:57:40;;;;;;;40.03;18.20;;;;;;;2.73;76.28;102185.47;5065062;28;20017;-46
2022/12/03 11:00:06;;;;;;;35.28;17.38;;;;;;;2.77;75.83;102172.25;5071586;28;20029;-48
2022/12/03 11:02:31;;;;;;;35.85;17.23;;;;;;;2.64;75.22;102170.38;5069304;28;20036;-46
2022/12/03 11:04:57;;;;;;;39.85;17.75;;;;;;;2.66;75.12;102170.50;5070711;28;20035;-48
2022/12/03 11:07:23;;;;;;;32.42;16.48;;;;;;;2.72;75.46;102162.47;5069839;28;20032;-48
2022/12/03 11:09:54;;;;;;;27.63;15.43;;;;;;;2.75;74.55;102167.81;5070857;28;20051;-46
2022/12/03 11:12:21;;;;;;;29.17;15.30;;;;;;;2.79;74.50;102173.28;5070471;28;20043;-48
2022/12/03 11:14:49;;;;;;;27.45;14.52;;;;;;;2.83;73.64;102161.69;5070583;28;20097;-46
2022/12/03 11:17:51;;;;;;;24.13;13.77;;;;;;;2.92;73.42;102167.50;5070400;28;20040;-49
2022/12/03 11:20:19;;;;;;;32.33;15.23;;;;;;;2.98;73.40;102173.09;5067772;28;20031;-46
2022/12/03 11:22:48;;;;;;;36.80;15.15;;;;;;;2.95;72.29;102160.13;5070377;28;20480;-46
2022/12/03 11:25:26;;;;;;;26.77;14.18;;;;;;;2.95;72.40;102160.13;5069760;28;20098;-48
2022/12/03 11:28:13;;;;;;;28.73;14.85;;;;;;;2.85;71.98;102155.06;5070250;28;20472;-46
2022/12/03 11:30:47;;;;;;;23.60;13.38;;;;;;;2.82;72.82;102149.75;5069333;28;20036;-44
2022/12/03 11:33:18;;;;;;;28.48;15.27;;;;;;;2.75;71.93;102147.50;5067591;28;20056;-44
2022/12/03 11:36:02;;;;;;;27.85;15.52;;;;;;;2.62;72.37;102145.63;5070765;28;20457;-44